sensor_id;sensor_type;location;lat;lon;timestamp;temperature;humidity
38995;DHT22;24769;18.712;99.000;2023-04-03T00:02:00;22.60;99.90
38995;DHT22;24769;18.712;99.000;2023-04-03T00:04:27;22.60;99.90
38995;DHT22;24769;18.712;99.000;2023-04-03T00:06:53;22.80;99.90
38995;DHT22;24769;18.712;99.000;2023-04-03T00:09:20;22.90;96.30
38995;DHT22;24769;18.712;99.000;2023-04-03T00:11:47;23.50;84.50
38995;DHT22;24769;18.712;99.000;2023-04-03T00:14:14;24.00;81.00
38995;DHT22;24769;18.712;99.000;2023-04-03T00:16:41;24.00;80.40
38995;DHT22;24769;18.712;99.000;2023-04-03T00:19:07;24.10;78.00
38995;DHT22;24769;18.712;99.000;2023-04-03T00:21:34;24.30;76.10
38995;DHT22;24769;18.712;99.000;2023-04-03T00:24:01;24.40;76.00
38995;DHT22;24769;18.712;99.000;2023-04-03T00:26:28;24.50;78.70
38995;DHT22;24769;18.712;99.000;2023-04-03T00:28:55;24.60;78.60
38995;DHT22;24769;18.712;99.000;2023-04-03T00:31:22;24.70;79.30
38995;DHT22;24769;18.712;99.000;2023-04-03T00:33:49;24.90;74.00
38995;DHT22;24769;18.712;99.000;2023-04-03T00:36:15;25.00;68.80
38995;DHT22;24769;18.712;99.000;2023-04-03T00:38:42;25.20;65.10
38995;DHT22;24769;18.712;99.000;2023-04-03T00:41:09;25.30;63.30
38995;DHT22;24769;18.712;99.000;2023-04-03T00:43:35;25.40;60.50
38995;DHT22;24769;18.712;99.000;2023-04-03T00:46:02;25.70;57.50
38995;DHT22;24769;18.712;99.000;2023-04-03T00:48:39;25.90;54.90
38995;DHT22;24769;18.712;99.000;2023-04-03T00:51:10;26.10;50.60
38995;DHT22;24769;18.712;99.000;2023-04-03T00:53:43;26.40;49.40
38995;DHT22;24769;18.712;99.000;2023-04-03T00:56:13;26.50;47.90
38995;DHT22;24769;18.712;99.000;2023-04-03T00:59:03;26.80;46.90
38995;DHT22;24769;18.712;99.000;2023-04-03T01:01:31;26.80;46.50
38995;DHT22;24769;18.712;99.000;2023-04-03T01:04:02;27.10;46.00
38995;DHT22;24769;18.712;99.000;2023-04-03T01:06:34;27.20;47.10
38995;DHT22;24769;18.712;99.000;2023-04-03T01:09:02;27.40;44.60
38995;DHT22;24769;18.712;99.000;2023-04-03T01:11:29;27.70;41.30
38995;DHT22;24769;18.712;99.000;2023-04-03T01:13:56;27.50;41.80
38995;DHT22;24769;18.712;99.000;2023-04-03T01:16:23;27.70;40.40
38995;DHT22;24769;18.712;99.000;2023-04-03T01:18:56;28.00;40.80
38995;DHT22;24769;18.712;99.000;2023-04-03T01:26:44;28.60;34.80
38995;DHT22;24769;18.712;99.000;2023-04-03T01:29:10;28.60;34.80
38995;DHT22;24769;18.712;99.000;2023-04-03T01:31:54;29.00;34.20
38995;DHT22;24769;18.712;99.000;2023-04-03T01:34:21;28.80;32.50
38995;DHT22;24769;18.712;99.000;2023-04-03T01:36:49;29.00;33.50
38995;DHT22;24769;18.712;99.000;2023-04-03T01:39:17;29.20;31.90
38995;DHT22;24769;18.712;99.000;2023-04-03T01:41:44;29.40;30.30
38995;DHT22;24769;18.712;99.000;2023-04-03T01:44:11;29.70;29.10
38995;DHT22;24769;18.712;99.000;2023-04-03T01:46:38;29.50;29.40
38995;DHT22;24769;18.712;99.000;2023-04-03T01:49:05;29.70;28.30
38995;DHT22;24769;18.712;99.000;2023-04-03T01:51:32;29.60;28.80
38995;DHT22;24769;18.712;99.000;2023-04-03T01:53:59;29.80;28.60
38995;DHT22;24769;18.712;99.000;2023-04-03T01:56:26;29.70;27.80
38995;DHT22;24769;18.712;99.000;2023-04-03T01:58:52;29.90;26.00
38995;DHT22;24769;18.712;99.000;2023-04-03T02:01:19;29.90;26.40
38995;DHT22;24769;18.712;99.000;2023-04-03T02:03:47;30.00;26.00
38995;DHT22;24769;18.712;99.000;2023-04-03T02:06:13;30.30;26.50
38995;DHT22;24769;18.712;99.000;2023-04-03T02:08:40;30.50;24.40
38995;DHT22;24769;18.712;99.000;2023-04-03T02:11:07;30.60;24.30
38995;DHT22;24769;18.712;99.000;2023-04-03T02:13:34;30.40;24.80
38995;DHT22;24769;18.712;99.000;2023-04-03T02:16:07;30.50;24.40
38995;DHT22;24769;18.712;99.000;2023-04-03T02:18:34;30.40;24.20
38995;DHT22;24769;18.712;99.000;2023-04-03T02:21:00;30.70;23.30
38995;DHT22;24769;18.712;99.000;2023-04-03T02:23:27;30.40;23.00
38995;DHT22;24769;18.712;99.000;2023-04-03T02:26:01;30.60;23.00
38995;DHT22;24769;18.712;99.000;2023-04-03T02:28:28;30.80;23.10
38995;DHT22;24769;18.712;99.000;2023-04-03T02:30:55;31.10;23.10
38995;DHT22;24769;18.712;99.000;2023-04-03T02:33:22;31.20;22.40
38995;DHT22;24769;18.712;99.000;2023-04-03T02:35:53;31.20;20.20
38995;DHT22;24769;18.712;99.000;2023-04-03T02:38:20;31.20;22.50
38995;DHT22;24769;18.712;99.000;2023-04-03T02:40:47;31.20;21.80
38995;DHT22;24769;18.712;99.000;2023-04-03T02:43:14;31.50;20.90
38995;DHT22;24769;18.712;99.000;2023-04-03T02:45:41;31.70;20.00
38995;DHT22;24769;18.712;99.000;2023-04-03T02:48:07;31.80;18.70
38995;DHT22;24769;18.712;99.000;2023-04-03T02:50:34;31.70;19.00
38995;DHT22;24769;18.712;99.000;2023-04-03T02:53:01;31.70;18.80
38995;DHT22;24769;18.712;99.000;2023-04-03T02:55:27;31.80;19.20
38995;DHT22;24769;18.712;99.000;2023-04-03T02:57:54;32.10;19.10
38995;DHT22;24769;18.712;99.000;2023-04-03T03:00:21;32.20;18.30
38995;DHT22;24769;18.712;99.000;2023-04-03T03:02:49;32.30;18.30
38995;DHT22;24769;18.712;99.000;2023-04-03T03:05:16;32.20;18.20
38995;DHT22;24769;18.712;99.000;2023-04-03T03:07:42;32.60;17.10
38995;DHT22;24769;18.712;99.000;2023-04-03T03:10:09;32.60;17.60
38995;DHT22;24769;18.712;99.000;2023-04-03T03:12:36;32.80;16.00
38995;DHT22;24769;18.712;99.000;2023-04-03T03:15:03;32.90;16.00
38995;DHT22;24769;18.712;99.000;2023-04-03T03:17:30;33.00;16.10
38995;DHT22;24769;18.712;99.000;2023-04-03T03:19:56;33.00;15.20
38995;DHT22;24769;18.712;99.000;2023-04-03T03:22:23;33.00;15.40
38995;DHT22;24769;18.712;99.000;2023-04-03T03:24:50;33.30;15.20
38995;DHT22;24769;18.712;99.000;2023-04-03T03:27:16;33.00;14.40
38995;DHT22;24769;18.712;99.000;2023-04-03T03:29:43;33.10;14.40
38995;DHT22;24769;18.712;99.000;2023-04-03T03:32:10;33.00;15.10
38995;DHT22;24769;18.712;99.000;2023-04-03T03:34:36;33.20;15.00
38995;DHT22;24769;18.712;99.000;2023-04-03T03:37:03;33.30;13.70
38995;DHT22;24769;18.712;99.000;2023-04-03T03:39:30;33.50;13.60
38995;DHT22;24769;18.712;99.000;2023-04-03T03:41:57;33.60;12.00
38995;DHT22;24769;18.712;99.000;2023-04-03T03:44:24;33.70;13.00
38995;DHT22;24769;18.712;99.000;2023-04-03T03:46:50;33.90;11.90
38995;DHT22;24769;18.712;99.000;2023-04-03T03:49:17;33.80;12.30
38995;DHT22;24769;18.712;99.000;2023-04-03T03:51:48;34.00;12.50
38995;DHT22;24769;18.712;99.000;2023-04-03T03:54:16;33.90;11.40
38995;DHT22;24769;18.712;99.000;2023-04-03T03:56:43;33.80;11.80
38995;DHT22;24769;18.712;99.000;2023-04-03T03:59:11;33.90;10.80
38995;DHT22;24769;18.712;99.000;2023-04-03T04:01:38;34.00;11.60
38995;DHT22;24769;18.712;99.000;2023-04-03T04:04:05;34.30;11.30
38995;DHT22;24769;18.712;99.000;2023-04-03T04:06:32;33.90;10.40
38995;DHT22;24769;18.712;99.000;2023-04-03T04:08:58;33.60;11.50
38995;DHT22;24769;18.712;99.000;2023-04-03T04:11:25;33.70;11.50
38995;DHT22;24769;18.712;99.000;2023-04-03T04:13:53;33.70;11.00
38995;DHT22;24769;18.712;99.000;2023-04-03T04:16:20;33.80;9.60
38995;DHT22;24769;18.712;99.000;2023-04-03T04:18:46;33.50;9.90
38995;DHT22;24769;18.712;99.000;2023-04-03T04:21:13;33.80;10.20
38995;DHT22;24769;18.712;99.000;2023-04-03T04:23:39;34.30;10.90
38995;DHT22;24769;18.712;99.000;2023-04-03T04:26:06;34.10;9.30
38995;DHT22;24769;18.712;99.000;2023-04-03T04:28:33;34.40;9.20
38995;DHT22;24769;18.712;99.000;2023-04-03T04:30:59;34.20;7.80
38995;DHT22;24769;18.712;99.000;2023-04-03T04:33:26;34.30;8.80
38995;DHT22;24769;18.712;99.000;2023-04-03T04:35:52;34.50;8.20
38995;DHT22;24769;18.712;99.000;2023-04-03T04:38:19;34.50;8.50
38995;DHT22;24769;18.712;99.000;2023-04-03T04:40:46;34.90;7.70
38995;DHT22;24769;18.712;99.000;2023-04-03T04:43:13;34.60;7.30
38995;DHT22;24769;18.712;99.000;2023-04-03T04:45:41;34.70;8.30
38995;DHT22;24769;18.712;99.000;2023-04-03T04:48:08;34.80;7.30
38995;DHT22;24769;18.712;99.000;2023-04-03T04:50:34;34.70;7.70
38995;DHT22;24769;18.712;99.000;2023-04-03T04:53:01;34.70;8.00
38995;DHT22;24769;18.712;99.000;2023-04-03T04:55:27;35.10;7.20
38995;DHT22;24769;18.712;99.000;2023-04-03T04:57:54;35.00;8.40
38995;DHT22;24769;18.712;99.000;2023-04-03T05:00:21;35.10;7.80
38995;DHT22;24769;18.712;99.000;2023-04-03T05:02:47;35.00;7.50
38995;DHT22;24769;18.712;99.000;2023-04-03T05:05:14;34.90;7.30
38995;DHT22;24769;18.712;99.000;2023-04-03T05:07:41;35.20;7.90
38995;DHT22;24769;18.712;99.000;2023-04-03T05:10:08;35.30;7.20
38995;DHT22;24769;18.712;99.000;2023-04-03T05:12:35;34.80;7.60
38995;DHT22;24769;18.712;99.000;2023-04-03T05:15:02;34.90;7.60
38995;DHT22;24769;18.712;99.000;2023-04-03T05:17:28;35.10;8.00
38995;DHT22;24769;18.712;99.000;2023-04-03T05:19:55;35.00;7.70
38995;DHT22;24769;18.712;99.000;2023-04-03T05:22:21;35.30;7.00
38995;DHT22;24769;18.712;99.000;2023-04-03T05:24:48;35.50;7.00
38995;DHT22;24769;18.712;99.000;2023-04-03T05:27:15;35.60;6.80
38995;DHT22;24769;18.712;99.000;2023-04-03T05:29:42;35.50;7.20
38995;DHT22;24769;18.712;99.000;2023-04-03T05:32:10;35.50;8.10
38995;DHT22;24769;18.712;99.000;2023-04-03T05:34:37;35.60;6.50
38995;DHT22;24769;18.712;99.000;2023-04-03T05:37:03;35.50;7.70
38995;DHT22;24769;18.712;99.000;2023-04-03T05:39:31;35.60;7.40
38995;DHT22;24769;18.712;99.000;2023-04-03T05:41:58;35.60;6.00
38995;DHT22;24769;18.712;99.000;2023-04-03T05:44:24;35.30;6.30
38995;DHT22;24769;18.712;99.000;2023-04-03T05:46:51;35.60;7.10
38995;DHT22;24769;18.712;99.000;2023-04-03T05:49:17;36.10;6.60
38995;DHT22;24769;18.712;99.000;2023-04-03T05:51:44;35.60;5.90
38995;DHT22;24769;18.712;99.000;2023-04-03T05:54:20;35.50;6.30
38995;DHT22;24769;18.712;99.000;2023-04-03T05:56:51;35.70;5.70
38995;DHT22;24769;18.712;99.000;2023-04-03T05:59:19;35.60;5.80
38995;DHT22;24769;18.712;99.000;2023-04-03T06:01:46;35.60;5.60
38995;DHT22;24769;18.712;99.000;2023-04-03T06:04:14;35.60;5.90
38995;DHT22;24769;18.712;99.000;2023-04-03T06:09:18;35.90;4.30
38995;DHT22;24769;18.712;99.000;2023-04-03T06:11:45;35.90;5.10
38995;DHT22;24769;18.712;99.000;2023-04-03T06:14:12;35.80;4.60
38995;DHT22;24769;18.712;99.000;2023-04-03T06:16:39;36.00;5.70
38995;DHT22;24769;18.712;99.000;2023-04-03T06:19:09;36.10;5.40
38995;DHT22;24769;18.712;99.000;2023-04-03T06:21:36;36.20;4.60
38995;DHT22;24769;18.712;99.000;2023-04-03T06:24:04;36.10;3.10
38995;DHT22;24769;18.712;99.000;2023-04-03T06:26:32;36.30;3.70
38995;DHT22;24769;18.712;99.000;2023-04-03T06:29:00;36.10;3.10
38995;DHT22;24769;18.712;99.000;2023-04-03T06:31:28;36.10;4.40
38995;DHT22;24769;18.712;99.000;2023-04-03T06:33:54;35.90;2.40
38995;DHT22;24769;18.712;99.000;2023-04-03T06:36:22;36.00;3.70
38995;DHT22;24769;18.712;99.000;2023-04-03T06:38:49;36.60;3.00
38995;DHT22;24769;18.712;99.000;2023-04-03T06:41:16;36.50;3.80
38995;DHT22;24769;18.712;99.000;2023-04-03T06:43:44;36.30;3.00
38995;DHT22;24769;18.712;99.000;2023-04-03T06:46:19;36.10;2.60
38995;DHT22;24769;18.712;99.000;2023-04-03T06:48:46;35.90;2.90
38995;DHT22;24769;18.712;99.000;2023-04-03T06:51:20;36.30;3.40
38995;DHT22;24769;18.712;99.000;2023-04-03T06:53:48;36.20;2.20
38995;DHT22;24769;18.712;99.000;2023-04-03T06:56:15;36.00;2.80
38995;DHT22;24769;18.712;99.000;2023-04-03T06:58:43;35.90;2.60
38995;DHT22;24769;18.712;99.000;2023-04-03T07:01:11;36.30;3.50
38995;DHT22;24769;18.712;99.000;2023-04-03T07:03:38;36.50;2.80
38995;DHT22;24769;18.712;99.000;2023-04-03T07:06:06;36.50;1.80
38995;DHT22;24769;18.712;99.000;2023-04-03T07:08:34;36.10;2.00
38995;DHT22;24769;18.712;99.000;2023-04-03T07:11:01;36.10;2.80
38995;DHT22;24769;18.712;99.000;2023-04-03T07:13:28;36.30;2.10
38995;DHT22;24769;18.712;99.000;2023-04-03T07:15:55;36.60;2.30
38995;DHT22;24769;18.712;99.000;2023-04-03T07:18:22;36.60;2.00
38995;DHT22;24769;18.712;99.000;2023-04-03T07:20:49;36.50;1.00
38995;DHT22;24769;18.712;99.000;2023-04-03T07:23:16;36.30;1.30
38995;DHT22;24769;18.712;99.000;2023-04-03T07:25:47;36.30;1.80
38995;DHT22;24769;18.712;99.000;2023-04-03T07:28:14;36.80;1.90
38995;DHT22;24769;18.712;99.000;2023-04-03T07:30:46;36.40;1.10
38995;DHT22;24769;18.712;99.000;2023-04-03T07:33:15;36.20;1.70
38995;DHT22;24769;18.712;99.000;2023-04-03T07:35:42;36.60;1.00
38995;DHT22;24769;18.712;99.000;2023-04-03T07:38:10;36.50;1.50
38995;DHT22;24769;18.712;99.000;2023-04-03T07:40:37;36.00;1.00
38995;DHT22;24769;18.712;99.000;2023-04-03T07:43:05;36.00;1.00
38995;DHT22;24769;18.712;99.000;2023-04-03T07:45:34;36.40;1.00
38995;DHT22;24769;18.712;99.000;2023-04-03T07:48:02;36.60;1.00
38995;DHT22;24769;18.712;99.000;2023-04-03T07:50:28;36.60;1.00
38995;DHT22;24769;18.712;99.000;2023-04-03T07:52:57;36.90;1.00
38995;DHT22;24769;18.712;99.000;2023-04-03T07:55:24;36.60;1.00
38995;DHT22;24769;18.712;99.000;2023-04-03T07:57:51;36.50;1.00
38995;DHT22;24769;18.712;99.000;2023-04-03T08:00:18;36.50;1.00
38995;DHT22;24769;18.712;99.000;2023-04-03T08:02:46;36.50;1.00
38995;DHT22;24769;18.712;99.000;2023-04-03T08:05:18;36.70;1.00
38995;DHT22;24769;18.712;99.000;2023-04-03T08:07:48;36.50;1.00
38995;DHT22;24769;18.712;99.000;2023-04-03T08:10:15;36.30;1.00
38995;DHT22;24769;18.712;99.000;2023-04-03T08:12:42;36.50;1.00
38995;DHT22;24769;18.712;99.000;2023-04-03T08:15:11;36.40;1.00
38995;DHT22;24769;18.712;99.000;2023-04-03T08:17:38;36.40;1.00
38995;DHT22;24769;18.712;99.000;2023-04-03T08:20:06;36.40;1.00
38995;DHT22;24769;18.712;99.000;2023-04-03T08:22:33;36.40;1.00
38995;DHT22;24769;18.712;99.000;2023-04-03T08:25:00;36.50;1.00
38995;DHT22;24769;18.712;99.000;2023-04-03T08:27:28;36.60;1.00
38995;DHT22;24769;18.712;99.000;2023-04-03T08:29:55;36.60;1.00
38995;DHT22;24769;18.712;99.000;2023-04-03T08:32:23;36.50;1.00
38995;DHT22;24769;18.712;99.000;2023-04-03T08:34:50;36.10;1.00
38995;DHT22;24769;18.712;99.000;2023-04-03T08:37:17;35.70;1.00
38995;DHT22;24769;18.712;99.000;2023-04-03T08:39:43;35.80;1.00
38995;DHT22;24769;18.712;99.000;2023-04-03T08:48:05;36.10;1.00
38995;DHT22;24769;18.712;99.000;2023-04-03T08:50:41;36.10;1.00
38995;DHT22;24769;18.712;99.000;2023-04-03T08:53:29;35.90;1.00
38995;DHT22;24769;18.712;99.000;2023-04-03T08:55:58;36.10;1.00
38995;DHT22;24769;18.712;99.000;2023-04-03T08:58:30;36.10;1.00
38995;DHT22;24769;18.712;99.000;2023-04-03T09:03:49;35.50;1.00
38995;DHT22;24769;18.712;99.000;2023-04-03T09:06:33;35.40;1.00
38995;DHT22;24769;18.712;99.000;2023-04-03T09:09:40;35.50;1.00
38995;DHT22;24769;18.712;99.000;2023-04-03T09:15:22;35.80;1.00
38995;DHT22;24769;18.712;99.000;2023-04-03T09:20:49;36.00;1.00
38995;DHT22;24769;18.712;99.000;2023-04-03T09:23:38;35.70;1.00
38995;DHT22;24769;18.712;99.000;2023-04-03T09:26:12;35.80;1.00
38995;DHT22;24769;18.712;99.000;2023-04-03T09:28:41;35.60;1.00
38995;DHT22;24769;18.712;99.000;2023-04-03T09:31:24;35.50;1.00
38995;DHT22;24769;18.712;99.000;2023-04-03T09:34:01;35.50;1.00
38995;DHT22;24769;18.712;99.000;2023-04-03T09:36:46;35.40;1.00
38995;DHT22;24769;18.712;99.000;2023-04-03T09:39:20;35.50;1.00
38995;DHT22;24769;18.712;99.000;2023-04-03T09:46:57;35.20;1.00
38995;DHT22;24769;18.712;99.000;2023-04-03T09:49:24;35.30;1.00
38995;DHT22;24769;18.712;99.000;2023-04-03T09:51:52;35.10;1.00
38995;DHT22;24769;18.712;99.000;2023-04-03T09:54:38;35.00;1.00
38995;DHT22;24769;18.712;99.000;2023-04-03T09:57:12;35.00;1.00
38995;DHT22;24769;18.712;99.000;2023-04-03T09:59:58;34.90;1.00
38995;DHT22;24769;18.712;99.000;2023-04-03T10:02:37;34.80;1.00
38995;DHT22;24769;18.712;99.000;2023-04-03T10:07:51;34.60;1.00
38995;DHT22;24769;18.712;99.000;2023-04-03T10:10:20;34.50;1.00
38995;DHT22;24769;18.712;99.000;2023-04-03T10:16:10;34.40;1.10
38995;DHT22;24769;18.712;99.000;2023-04-03T10:19:01;34.30;1.10
38995;DHT22;24769;18.712;99.000;2023-04-03T10:21:53;34.20;2.30
38995;DHT22;24769;18.712;99.000;2023-04-03T10:27:22;34.10;1.90
38995;DHT22;24769;18.712;99.000;2023-04-03T10:46:14;33.40;4.10
38995;DHT22;24769;18.712;99.000;2023-04-03T10:57:19;32.50;6.80
38995;DHT22;24769;18.712;99.000;2023-04-03T11:00:07;32.40;6.60
38995;DHT22;24769;18.712;99.000;2023-04-03T11:03:11;32.40;5.50
38995;DHT22;24769;18.712;99.000;2023-04-03T11:05:47;32.60;5.90
38995;DHT22;24769;18.712;99.000;2023-04-03T11:08:43;32.40;6.30
38995;DHT22;24769;18.712;99.000;2023-04-03T11:11:17;32.40;6.30
38995;DHT22;24769;18.712;99.000;2023-04-03T11:16:30;32.10;8.60
38995;DHT22;24769;18.712;99.000;2023-04-03T11:21:57;31.80;9.90
38995;DHT22;24769;18.712;99.000;2023-04-03T11:24:29;31.60;10.70
38995;DHT22;24769;18.712;99.000;2023-04-03T11:27:00;31.40;11.10
38995;DHT22;24769;18.712;99.000;2023-04-03T11:29:35;31.20;11.70
38995;DHT22;24769;18.712;99.000;2023-04-03T11:32:12;30.90;11.70
38995;DHT22;24769;18.712;99.000;2023-04-03T11:34:48;30.60;11.80
38995;DHT22;24769;18.712;99.000;2023-04-03T11:37:35;30.50;12.50
38995;DHT22;24769;18.712;99.000;2023-04-03T11:40:21;30.30;13.60
38995;DHT22;24769;18.712;99.000;2023-04-03T11:43:25;30.20;14.00
38995;DHT22;24769;18.712;99.000;2023-04-03T11:46:06;30.00;15.40
38995;DHT22;24769;18.712;99.000;2023-04-03T11:53:40;29.60;15.90
38995;DHT22;24769;18.712;99.000;2023-04-03T12:04:12;29.30;17.40
38995;DHT22;24769;18.712;99.000;2023-04-03T12:12:34;29.10;19.30
38995;DHT22;24769;18.712;99.000;2023-04-03T12:15:26;29.10;19.30
38995;DHT22;24769;18.712;99.000;2023-04-03T12:17:53;28.90;19.70
38995;DHT22;24769;18.712;99.000;2023-04-03T12:23:55;28.80;20.10
38995;DHT22;24769;18.712;99.000;2023-04-03T12:29:24;28.70;20.30
38995;DHT22;24769;18.712;99.000;2023-04-03T12:36:17;28.80;19.70
38995;DHT22;24769;18.712;99.000;2023-04-03T12:38:39;28.90;18.80
38995;DHT22;24769;18.712;99.000;2023-04-03T12:46:52;28.70;19.80
38995;DHT22;24769;18.712;99.000;2023-04-03T12:49:39;28.80;19.20
38995;DHT22;24769;18.712;99.000;2023-04-03T12:52:52;28.90;18.90
38995;DHT22;24769;18.712;99.000;2023-04-03T12:55:21;29.10;18.70
38995;DHT22;24769;18.712;99.000;2023-04-03T12:57:49;29.40;17.00
38995;DHT22;24769;18.712;99.000;2023-04-03T13:00:29;29.70;14.60
38995;DHT22;24769;18.712;99.000;2023-04-03T13:02:56;30.00;13.50
38995;DHT22;24769;18.712;99.000;2023-04-03T13:05:24;30.00;13.60
38995;DHT22;24769;18.712;99.000;2023-04-03T13:08:01;30.10;13.70
38995;DHT22;24769;18.712;99.000;2023-04-03T13:10:29;30.10;13.00
38995;DHT22;24769;18.712;99.000;2023-04-03T13:13:06;30.00;13.30
38995;DHT22;24769;18.712;99.000;2023-04-03T13:15:44;29.90;14.00
38995;DHT22;24769;18.712;99.000;2023-04-03T13:18:32;29.70;14.30
38995;DHT22;24769;18.712;99.000;2023-04-03T13:21:18;29.50;14.60
38995;DHT22;24769;18.712;99.000;2023-04-03T13:23:48;29.50;14.40
38995;DHT22;24769;18.712;99.000;2023-04-03T13:26:17;29.40;15.00
38995;DHT22;24769;18.712;99.000;2023-04-03T13:28:45;29.30;15.30
38995;DHT22;24769;18.712;99.000;2023-04-03T13:33:52;29.20;15.50
38995;DHT22;24769;18.712;99.000;2023-04-03T13:36:23;29.20;15.50
38995;DHT22;24769;18.712;99.000;2023-04-03T13:39:03;29.20;15.90
38995;DHT22;24769;18.712;99.000;2023-04-03T13:41:39;29.10;15.80
38995;DHT22;24769;18.712;99.000;2023-04-03T13:46:56;29.00;16.60
38995;DHT22;24769;18.712;99.000;2023-04-03T13:51:52;28.90;17.10
38995;DHT22;24769;18.712;99.000;2023-04-03T13:54:28;28.80;17.10
38995;DHT22;24769;18.712;99.000;2023-04-03T13:56:58;28.90;16.70
38995;DHT22;24769;18.712;99.000;2023-04-03T13:59:31;28.90;16.90
38995;DHT22;24769;18.712;99.000;2023-04-03T14:04:44;28.70;18.00
38995;DHT22;24769;18.712;99.000;2023-04-03T14:07:12;28.70;18.20
38995;DHT22;24769;18.712;99.000;2023-04-03T14:09:39;28.70;18.30
38995;DHT22;24769;18.712;99.000;2023-04-03T14:12:12;28.60;18.40
38995;DHT22;24769;18.712;99.000;2023-04-03T14:14:40;28.50;19.20
38995;DHT22;24769;18.712;99.000;2023-04-03T14:17:22;28.40;19.40
38995;DHT22;24769;18.712;99.000;2023-04-03T14:19:51;28.40;19.80
38995;DHT22;24769;18.712;99.000;2023-04-03T14:22:24;28.40;20.10
38995;DHT22;24769;18.712;99.000;2023-04-03T14:24:52;28.30;20.00
38995;DHT22;24769;18.712;99.000;2023-04-03T14:27:42;28.20;20.40
38995;DHT22;24769;18.712;99.000;2023-04-03T14:30:29;28.10;21.80
38995;DHT22;24769;18.712;99.000;2023-04-03T14:32:57;28.10;22.20
38995;DHT22;24769;18.712;99.000;2023-04-03T14:35:26;27.90;22.70
38995;DHT22;24769;18.712;99.000;2023-04-03T14:37:54;27.90;22.30
38995;DHT22;24769;18.712;99.000;2023-04-03T14:40:25;28.00;22.60
38995;DHT22;24769;18.712;99.000;2023-04-03T14:42:52;28.00;22.50
38995;DHT22;24769;18.712;99.000;2023-04-03T14:45:21;28.00;22.40
38995;DHT22;24769;18.712;99.000;2023-04-03T14:47:53;28.00;22.10
38995;DHT22;24769;18.712;99.000;2023-04-03T14:50:26;28.10;22.20
38995;DHT22;24769;18.712;99.000;2023-04-03T14:52:56;28.10;22.20
38995;DHT22;24769;18.712;99.000;2023-04-03T14:55:24;28.10;22.20
38995;DHT22;24769;18.712;99.000;2023-04-03T14:57:52;28.00;22.60
38995;DHT22;24769;18.712;99.000;2023-04-03T15:00:21;28.10;22.00
38995;DHT22;24769;18.712;99.000;2023-04-03T15:02:48;28.10;22.20
38995;DHT22;24769;18.712;99.000;2023-04-03T15:05:15;28.30;21.20
38995;DHT22;24769;18.712;99.000;2023-04-03T15:07:53;28.30;21.60
38995;DHT22;24769;18.712;99.000;2023-04-03T15:10:21;28.20;22.00
38995;DHT22;24769;18.712;99.000;2023-04-03T15:12:49;28.10;22.50
38995;DHT22;24769;18.712;99.000;2023-04-03T15:15:18;28.00;23.30
38995;DHT22;24769;18.712;99.000;2023-04-03T15:17:47;27.90;24.30
38995;DHT22;24769;18.712;99.000;2023-04-03T15:20:19;27.60;25.80
38995;DHT22;24769;18.712;99.000;2023-04-03T15:22:47;27.50;27.10
38995;DHT22;24769;18.712;99.000;2023-04-03T15:25:14;27.50;27.60
38995;DHT22;24769;18.712;99.000;2023-04-03T15:27:41;27.40;28.00
38995;DHT22;24769;18.712;99.000;2023-04-03T15:30:11;27.40;28.20
38995;DHT22;24769;18.712;99.000;2023-04-03T15:32:39;27.30;28.80
38995;DHT22;24769;18.712;99.000;2023-04-03T15:35:06;27.40;28.80
38995;DHT22;24769;18.712;99.000;2023-04-03T15:37:33;27.30;29.30
38995;DHT22;24769;18.712;99.000;2023-04-03T15:39:59;27.30;29.50
38995;DHT22;24769;18.712;99.000;2023-04-03T15:42:26;27.20;30.40
38995;DHT22;24769;18.712;99.000;2023-04-03T15:44:52;27.20;30.70
38995;DHT22;24769;18.712;99.000;2023-04-03T15:47:19;27.00;32.40
38995;DHT22;24769;18.712;99.000;2023-04-03T15:49:46;26.80;34.30
38995;DHT22;24769;18.712;99.000;2023-04-03T15:52:12;26.60;36.40
38995;DHT22;24769;18.712;99.000;2023-04-03T15:54:39;26.50;37.80
38995;DHT22;24769;18.712;99.000;2023-04-03T15:57:05;26.30;39.30
38995;DHT22;24769;18.712;99.000;2023-04-03T15:59:32;26.20;40.20
38995;DHT22;24769;18.712;99.000;2023-04-03T16:01:59;26.20;41.50
38995;DHT22;24769;18.712;99.000;2023-04-03T16:04:28;26.10;40.80
38995;DHT22;24769;18.712;99.000;2023-04-03T16:06:54;26.10;41.60
38995;DHT22;24769;18.712;99.000;2023-04-03T16:09:21;26.20;41.90
38995;DHT22;24769;18.712;99.000;2023-04-03T16:11:48;26.10;42.10
38995;DHT22;24769;18.712;99.000;2023-04-03T16:14:14;26.00;43.10
38995;DHT22;24769;18.712;99.000;2023-04-03T16:16:41;25.90;42.90
38995;DHT22;24769;18.712;99.000;2023-04-03T16:19:07;25.90;44.10
38995;DHT22;24769;18.712;99.000;2023-04-03T16:21:35;25.80;44.90
38995;DHT22;24769;18.712;99.000;2023-04-03T16:24:02;25.90;44.50
38995;DHT22;24769;18.712;99.000;2023-04-03T16:26:29;25.90;44.10
38995;DHT22;24769;18.712;99.000;2023-04-03T16:28:55;25.80;45.20
38995;DHT22;24769;18.712;99.000;2023-04-03T16:31:23;26.00;44.60
38995;DHT22;24769;18.712;99.000;2023-04-03T16:33:50;26.00;44.40
38995;DHT22;24769;18.712;99.000;2023-04-03T16:36:20;25.90;43.90
38995;DHT22;24769;18.712;99.000;2023-04-03T16:38:46;26.00;43.90
38995;DHT22;24769;18.712;99.000;2023-04-03T16:41:13;26.10;43.50
38995;DHT22;24769;18.712;99.000;2023-04-03T16:43:39;26.20;42.00
38995;DHT22;24769;18.712;99.000;2023-04-03T16:46:06;26.40;40.70
38995;DHT22;24769;18.712;99.000;2023-04-03T16:48:33;26.40;40.30
38995;DHT22;24769;18.712;99.000;2023-04-03T16:51:00;26.50;40.40
38995;DHT22;24769;18.712;99.000;2023-04-03T16:53:28;26.30;40.70
38995;DHT22;24769;18.712;99.000;2023-04-03T16:55:56;26.40;40.20
38995;DHT22;24769;18.712;99.000;2023-04-03T16:58:23;26.50;40.10
38995;DHT22;24769;18.712;99.000;2023-04-03T17:00:50;26.40;40.20
38995;DHT22;24769;18.712;99.000;2023-04-03T17:03:16;26.40;40.80
38995;DHT22;24769;18.712;99.000;2023-04-03T17:05:46;26.40;40.90
38995;DHT22;24769;18.712;99.000;2023-04-03T17:08:12;26.30;42.00
38995;DHT22;24769;18.712;99.000;2023-04-03T17:10:39;26.10;43.70
38995;DHT22;24769;18.712;99.000;2023-04-03T17:13:06;26.00;44.80
38995;DHT22;24769;18.712;99.000;2023-04-03T17:15:32;26.00;45.20
38995;DHT22;24769;18.712;99.000;2023-04-03T17:17:59;25.90;45.00
38995;DHT22;24769;18.712;99.000;2023-04-03T17:20:26;25.90;44.80
38995;DHT22;24769;18.712;99.000;2023-04-03T17:22:53;25.80;44.80
38995;DHT22;24769;18.712;99.000;2023-04-03T17:25:19;25.90;45.50
38995;DHT22;24769;18.712;99.000;2023-04-03T17:27:46;25.90;44.70
38995;DHT22;24769;18.712;99.000;2023-04-03T17:30:13;25.90;45.30
38995;DHT22;24769;18.712;99.000;2023-04-03T17:32:39;25.80;45.20